createdAt,value
2019-05-30T00:00:59.980Z,26.60
2019-05-30T00:03:28.243Z,27.37
2019-05-30T00:05:58.313Z,26.43
2019-05-30T00:08:26.884Z,25.47
2019-05-30T00:10:56.506Z,25.23
2019-05-30T00:13:24.913Z,25.37
2019-05-30T00:15:54.512Z,24.73
2019-05-30T00:18:23.223Z,23.97
2019-05-30T00:20:52.312Z,22.63
2019-05-30T00:23:21.546Z,22.20
2019-05-30T00:25:50.019Z,23.23
2019-05-30T00:28:18.497Z,23.50
2019-05-30T00:30:46.808Z,22.13
2019-05-30T00:33:15.188Z,23.63
2019-05-30T00:35:43.978Z,24.50
2019-05-30T00:38:12.644Z,27.60
2019-05-30T00:40:40.810Z,25.60
2019-05-30T00:43:09.086Z,25.47
2019-05-30T00:45:37.442Z,24.90
2019-05-30T00:48:06.502Z,26.07
2019-05-30T00:50:36.139Z,25.27
2019-05-30T00:53:05.333Z,26.20
2019-05-30T00:55:33.743Z,29.03
2019-05-30T00:58:02.822Z,27.20
2019-05-30T01:00:42.826Z,26.67
2019-05-30T01:03:04.787Z,23.80
2019-05-30T01:05:32.048Z,22.33
2019-05-30T01:08:00.875Z,23.70
2019-05-30T01:10:29.298Z,23.57
2019-05-30T01:12:57.539Z,22.93
2019-05-30T01:15:25.964Z,22.43
2019-05-30T01:17:54.330Z,22.83
2019-05-30T01:20:23.133Z,21.50
2019-05-30T01:22:51.510Z,22.97
2019-05-30T01:25:19.743Z,23.23
2019-05-30T01:27:48.318Z,22.93
2019-05-30T01:30:16.645Z,22.83
2019-05-30T01:32:44.981Z,23.17
2019-05-30T01:35:13.191Z,22.63
2019-05-30T01:37:42.382Z,22.87
2019-05-30T01:40:10.870Z,22.40
2019-05-30T01:42:39.140Z,21.87
2019-05-30T01:45:08.527Z,23.00
2019-05-30T01:47:37.160Z,22.33
2019-05-30T01:50:08.618Z,22.77
2019-05-30T01:52:38.798Z,22.93
2019-05-30T01:55:08.863Z,23.03
2019-05-30T01:57:37.837Z,22.17
2019-05-30T02:00:18.739Z,23.30
2019-05-30T02:02:37.285Z,24.47
2019-05-30T02:05:07.511Z,23.43
2019-05-30T02:07:36.332Z,23.30
2019-05-30T02:10:05.373Z,23.20
2019-05-30T02:12:33.663Z,25.00
2019-05-30T02:15:02.070Z,25.60
2019-05-30T02:17:30.410Z,26.10
2019-05-30T02:19:59.675Z,25.23
2019-05-30T02:22:27.932Z,25.97
2019-05-30T02:24:56.143Z,27.13
2019-05-30T02:27:24.810Z,27.30
2019-05-30T02:29:53.776Z,29.00
2019-05-30T02:32:22.016Z,27.50
2019-05-30T02:34:50.430Z,27.93
2019-05-30T02:37:19.020Z,31.23
2019-05-30T02:39:48.199Z,27.47
2019-05-30T02:42:16.613Z,26.80
2019-05-30T02:44:45.068Z,28.70
2019-05-30T02:47:13.719Z,27.63
2019-05-30T02:49:42.230Z,24.40
2019-05-30T02:52:12.964Z,26.37
2019-05-30T02:54:41.924Z,26.27
2019-05-30T02:57:12.358Z,25.70
2019-05-30T02:59:40.605Z,26.43
2019-05-30T03:02:13.969Z,24.57
2019-05-30T03:04:39.360Z,24.73
2019-05-30T03:07:09.043Z,22.03
2019-05-30T03:09:37.956Z,21.97
2019-05-30T03:12:08.484Z,22.57
2019-05-30T03:14:36.757Z,23.20
2019-05-30T03:17:09.126Z,22.93
2019-05-30T03:19:35.970Z,21.83
2019-05-30T03:22:05.193Z,23.03
2019-05-30T03:24:34.800Z,22.93
2019-05-30T03:27:04.961Z,22.27
2019-05-30T03:29:33.288Z,19.63
2019-05-30T03:32:39.047Z,17.40
2019-05-30T03:34:32.203Z,15.93
2019-05-30T03:37:00.881Z,16.20
2019-05-30T03:39:29.510Z,16.07
2019-05-30T03:41:57.980Z,13.90
2019-05-30T03:44:26.227Z,13.40
2019-05-30T03:46:55.902Z,13.23
2019-05-30T03:49:25.952Z,11.77
2019-05-30T03:51:55.314Z,12.97
2019-05-30T03:54:23.841Z,10.87
2019-05-30T03:57:00.470Z,9.97
2019-05-30T03:59:30.225Z,10.13
2019-05-30T04:02:00.182Z,10.40
2019-05-30T04:04:29.934Z,9.70
2019-05-30T04:07:00.268Z,9.60
2019-05-30T04:09:28.613Z,9.77
2019-05-30T04:12:09.575Z,9.53
2019-05-30T04:14:39.098Z,8.80
2019-05-30T04:17:08.336Z,9.27
2019-05-30T04:19:37.836Z,8.70
2019-05-30T04:22:07.309Z,7.50
2019-05-30T04:24:36.091Z,7.97
2019-05-30T04:27:04.521Z,8.00
2019-05-30T04:29:32.895Z,8.00
2019-05-30T04:32:01.553Z,7.30
2019-05-30T04:34:29.933Z,7.63
2019-05-30T04:36:59.012Z,6.67
2019-05-30T04:39:27.247Z,6.83
2019-05-30T04:41:55.660Z,6.30
2019-05-30T04:44:24.151Z,6.40
2019-05-30T04:46:52.888Z,5.80
2019-05-30T04:49:21.708Z,6.73
2019-05-30T04:51:50.691Z,6.80
2019-05-30T04:54:21.548Z,6.37
2019-05-30T04:56:50.236Z,6.73
2019-05-30T04:59:20.325Z,6.07
2019-05-30T05:01:49.735Z,5.87
2019-05-30T05:04:19.502Z,5.93
2019-05-30T05:06:48.735Z,5.10
2019-05-30T05:09:18.224Z,5.43
2019-05-30T05:11:46.722Z,5.30
2019-05-30T05:14:16.282Z,4.30
2019-05-30T05:16:45.133Z,5.17
2019-05-30T05:19:14.892Z,4.47
2019-05-30T05:21:43.613Z,4.27
2019-05-30T05:24:13.411Z,5.20
2019-05-30T05:26:42.617Z,4.97
2019-05-30T05:29:11.202Z,5.13
2019-05-30T05:31:39.676Z,4.57
2019-05-30T05:34:08.052Z,4.83
2019-05-30T05:36:36.355Z,4.93
2019-05-30T05:39:05.943Z,4.70
2019-05-30T05:41:34.411Z,4.67
2019-05-30T05:44:02.785Z,5.33
2019-05-30T05:46:31.241Z,5.40
2019-05-30T05:48:59.697Z,4.33
2019-05-30T05:51:29.050Z,4.77
2019-05-30T05:53:57.981Z,4.30
2019-05-30T05:56:26.422Z,4.37
2019-05-30T05:58:54.772Z,6.10
2019-05-30T06:01:25.406Z,5.17
2019-05-30T06:03:53.817Z,4.43
2019-05-30T06:06:23.437Z,4.07
2019-05-30T06:08:54.060Z,4.00
2019-05-30T06:11:22.822Z,4.33
2019-05-30T06:13:51.304Z,4.33
2019-05-30T06:16:19.953Z,3.97
2019-05-30T06:18:48.973Z,4.20
2019-05-30T06:21:17.367Z,3.67
2019-05-30T06:23:46.770Z,4.23
2019-05-30T06:26:15.349Z,7.43
2019-05-30T06:28:43.937Z,5.23
2019-05-30T06:31:13.344Z,4.80
2019-05-30T06:33:41.673Z,4.30
2019-05-30T06:36:10.291Z,4.30
2019-05-30T06:38:39.010Z,4.73
2019-05-30T06:41:07.789Z,4.77
2019-05-30T06:43:36.479Z,5.60
2019-05-30T06:46:04.950Z,5.50
2019-05-30T06:48:33.443Z,5.20
2019-05-30T06:51:02.226Z,5.10
2019-05-30T06:53:31.429Z,5.43
2019-05-30T06:56:00.531Z,5.80
2019-05-30T06:58:45.743Z,5.50
2019-05-30T07:01:00.110Z,5.10
2019-05-30T07:03:30.622Z,4.57
2019-05-30T07:05:59.605Z,4.03
2019-05-30T07:08:28.867Z,4.50
2019-05-30T07:10:57.578Z,3.97
2019-05-30T07:13:27.136Z,4.00
2019-05-30T07:15:55.682Z,4.00
2019-05-30T07:18:25.401Z,5.33
2019-05-30T07:20:53.829Z,5.73
2019-05-30T07:23:23.639Z,5.27
2019-05-30T07:25:52.829Z,4.77
2019-05-30T07:28:21.624Z,3.80
2019-05-30T07:30:49.891Z,4.57
2019-05-30T07:33:18.975Z,4.43
2019-05-30T07:35:47.372Z,4.70
2019-05-30T07:38:15.934Z,4.87
2019-05-30T07:40:44.729Z,4.73
2019-05-30T07:43:13.759Z,4.50
2019-05-30T07:45:46.780Z,5.00
2019-05-30T07:48:12.702Z,6.40
2019-05-30T07:50:41.774Z,5.50
2019-05-30T07:53:09.989Z,4.67
2019-05-30T07:55:39.340Z,4.20
2019-05-30T07:58:07.921Z,5.30
2019-05-30T08:00:37.672Z,5.30
2019-05-30T08:03:06.654Z,4.77
2019-05-30T08:05:36.431Z,4.73
2019-05-30T08:08:04.863Z,4.33
2019-05-30T08:10:34.022Z,4.13
2019-05-30T08:13:02.838Z,4.40
2019-05-30T08:15:31.527Z,3.40
2019-05-30T08:18:01.009Z,4.60
2019-05-30T08:20:29.726Z,4.10
2019-05-30T08:22:58.544Z,3.93
2019-05-30T08:25:27.976Z,4.13
2019-05-30T08:27:56.635Z,4.20
2019-05-30T08:30:25.420Z,5.80
2019-05-30T08:32:54.445Z,4.57
2019-05-30T08:35:36.527Z,4.50
2019-05-30T08:37:53.128Z,4.80
2019-05-30T08:40:21.524Z,5.50
2019-05-30T08:42:50.655Z,4.97
2019-05-30T08:45:19.589Z,12.70
2019-05-30T08:47:48.468Z,6.57
2019-05-30T08:50:17.335Z,5.50
2019-05-30T08:52:46.247Z,4.73
2019-05-30T08:55:14.892Z,5.07
2019-05-30T08:57:43.265Z,4.93
2019-05-30T09:00:12.374Z,9.70
2019-05-30T09:02:41.189Z,5.20
2019-05-30T09:05:09.498Z,7.13
2019-05-30T09:07:40.067Z,26.30
2019-05-30T09:10:09.099Z,5.70
2019-05-30T09:12:38.635Z,11.50
2019-05-30T09:15:09.557Z,8.60
2019-05-30T09:17:39.327Z,6.07
2019-05-30T09:20:08.726Z,5.07
2019-05-30T09:22:38.468Z,5.67
2019-05-30T09:25:11.598Z,9.90
2019-05-30T09:27:40.775Z,5.73
2019-05-30T09:30:12.139Z,5.37
2019-05-30T09:32:41.378Z,4.43
2019-05-30T09:35:10.887Z,6.43
2019-05-30T09:37:40.572Z,6.00
2019-05-30T09:40:10.769Z,4.17
2019-05-30T09:42:40.830Z,5.30
2019-05-30T09:45:10.477Z,6.00
2019-05-30T09:47:41.302Z,6.70
2019-05-30T09:50:09.347Z,5.10
2019-05-30T09:52:39.116Z,6.80
2019-05-30T09:55:09.089Z,5.83
2019-05-30T09:57:39.454Z,5.20
2019-05-30T10:00:11.598Z,5.07
2019-05-30T10:02:54.969Z,4.37
2019-05-30T10:05:26.181Z,4.50
2019-05-30T10:07:55.998Z,18.63
2019-05-30T10:10:25.207Z,8.10
2019-05-30T10:12:53.817Z,4.57
2019-05-30T10:15:22.471Z,5.10
2019-05-30T10:17:52.779Z,4.53
2019-05-30T10:20:20.968Z,4.93
2019-05-30T10:22:50.793Z,4.50
2019-05-30T10:25:19.452Z,3.50
2019-05-30T10:27:50.387Z,4.60
2019-05-30T10:30:19.333Z,3.30
2019-05-30T10:32:48.905Z,3.10
2019-05-30T10:35:18.086Z,2.93
2019-05-30T10:37:47.155Z,2.30
2019-05-30T10:40:15.747Z,2.83
2019-05-30T10:42:46.201Z,2.70
2019-05-30T10:45:15.546Z,2.80
2019-05-30T10:47:45.788Z,4.43
2019-05-30T10:50:15.662Z,3.90
2019-05-30T10:52:45.262Z,3.30
2019-05-30T10:55:15.133Z,3.70
2019-05-30T10:57:43.753Z,4.03
2019-05-30T11:00:13.989Z,3.53
2019-05-30T11:02:44.472Z,4.30
2019-05-30T11:05:12.777Z,14.43
2019-05-30T11:08:00.977Z,4.00
2019-05-30T11:10:19.127Z,4.17
2019-05-30T11:12:50.148Z,5.60
2019-05-30T11:15:18.769Z,5.87
2019-05-30T11:17:47.241Z,3.87
2019-05-30T11:20:17.130Z,4.10
2019-05-30T11:22:45.632Z,6.13
2019-05-30T11:25:14.098Z,3.30
2019-05-30T11:27:42.784Z,4.57
2019-05-30T11:30:17.556Z,4.23
2019-05-30T11:32:46.038Z,3.47
2019-05-30T11:35:14.231Z,4.27
2019-05-30T11:37:42.821Z,3.10
2019-05-30T11:40:11.191Z,2.27
2019-05-30T11:42:39.809Z,2.77
2019-05-30T11:45:08.067Z,2.67
2019-05-30T11:47:36.452Z,2.40
2019-05-30T11:50:06.077Z,2.50
2019-05-30T11:52:34.459Z,2.47
2019-05-30T11:55:03.030Z,2.80
2019-05-30T11:57:31.773Z,2.47
2019-05-30T12:00:00.497Z,2.53
2019-05-30T12:02:29.524Z,2.47
2019-05-30T12:04:58.622Z,2.20
2019-05-30T12:07:36.149Z,2.10
2019-05-30T12:09:57.146Z,2.20
2019-05-30T12:12:27.148Z,2.10
2019-05-30T12:14:57.359Z,2.17
2019-05-30T12:17:25.968Z,2.20
2019-05-30T12:19:55.900Z,1.77
2019-05-30T12:22:24.907Z,2.20
2019-05-30T12:24:53.853Z,2.27
2019-05-30T12:27:22.904Z,2.30
2019-05-30T12:29:52.103Z,2.73
2019-05-30T12:32:23.965Z,3.00
2019-05-30T12:34:54.271Z,3.27
2019-05-30T12:37:23.626Z,3.10
2019-05-30T12:39:52.488Z,3.63
2019-05-30T12:42:20.793Z,3.40
2019-05-30T12:44:49.509Z,3.40
2019-05-30T12:47:18.925Z,3.80
2019-05-30T12:49:47.421Z,3.40
2019-05-30T12:52:16.034Z,3.30
2019-05-30T12:54:44.570Z,3.60
2019-05-30T12:57:12.983Z,4.00
2019-05-30T12:59:41.289Z,3.53
2019-05-30T13:02:10.081Z,3.30
2019-05-30T13:04:38.687Z,4.40
2019-05-30T13:07:07.762Z,5.10
2019-05-30T13:09:36.158Z,4.27
2019-05-30T13:12:04.969Z,4.63
2019-05-30T13:14:33.877Z,3.90
2019-05-30T13:17:03.920Z,4.03
2019-05-30T13:19:33.098Z,5.50
2019-05-30T13:22:01.470Z,4.67
2019-05-30T13:24:30.241Z,4.10
2019-05-30T13:26:59.665Z,4.17
2019-05-30T13:29:30.910Z,4.30
2019-05-30T13:32:00.519Z,4.23
2019-05-30T13:34:29.282Z,4.97
2019-05-30T13:36:58.865Z,4.47
2019-05-30T13:39:27.425Z,4.90
2019-05-30T13:41:55.916Z,5.33
2019-05-30T13:44:24.591Z,5.30
2019-05-30T13:46:52.981Z,5.87
2019-05-30T13:49:21.159Z,5.93
2019-05-30T13:51:50.351Z,4.97
2019-05-30T13:54:19.007Z,4.90
2019-05-30T13:56:47.551Z,5.00
2019-05-30T13:59:16.321Z,5.23
2019-05-30T14:01:44.772Z,5.40
2019-05-30T14:04:13.246Z,4.93
2019-05-30T14:06:41.925Z,5.90
2019-05-30T14:09:10.838Z,6.33
2019-05-30T14:11:39.605Z,6.40
2019-05-30T14:14:23.510Z,6.00
2019-05-30T14:16:52.670Z,6.90
2019-05-30T14:19:25.105Z,3.67
2019-05-30T14:21:53.096Z,3.90
2019-05-30T14:24:21.589Z,4.27
2019-05-30T14:26:49.847Z,6.97
2019-05-30T14:29:18.321Z,4.30
2019-05-30T14:31:47.544Z,4.70
2019-05-30T14:34:16.310Z,6.00
2019-05-30T14:36:46.580Z,4.30
2019-05-30T14:39:15.246Z,11.00
2019-05-30T14:41:44.439Z,5.67
2019-05-30T14:44:13.220Z,10.37
2019-05-30T14:46:41.902Z,11.97
2019-05-30T14:49:10.682Z,9.10
2019-05-30T14:51:39.492Z,7.50
2019-05-30T14:54:08.864Z,7.57
2019-05-30T14:56:38.187Z,8.13
2019-05-30T14:59:13.785Z,10.20
2019-05-30T15:01:43.356Z,17.00
2019-05-30T15:04:13.453Z,13.17
2019-05-30T15:06:42.236Z,9.30
2019-05-30T15:09:17.489Z,21.83
2019-05-30T15:11:41.138Z,19.63
2019-05-30T15:14:10.879Z,9.07
2019-05-30T15:16:42.671Z,17.03
2019-05-30T15:19:12.371Z,10.37
2019-05-30T15:21:42.942Z,16.30
2019-05-30T15:24:12.790Z,12.70
2019-05-30T15:26:42.355Z,26.90
2019-05-30T15:29:10.726Z,26.67
2019-05-30T15:31:39.110Z,13.40
2019-05-30T15:34:08.529Z,15.07
2019-05-30T15:36:36.829Z,15.53
2019-05-30T15:39:06.958Z,16.03
2019-05-30T15:41:35.449Z,16.87
2019-05-30T15:44:04.019Z,8.30
2019-05-30T15:46:32.620Z,9.03
2019-05-30T15:49:01.700Z,11.60
2019-05-30T15:51:29.996Z,6.17
2019-05-30T15:53:58.878Z,10.30
2019-05-30T15:56:27.620Z,10.73
2019-05-30T15:58:55.897Z,8.60
2019-05-30T16:01:24.929Z,12.43
2019-05-30T16:03:53.433Z,11.63
2019-05-30T16:06:21.983Z,10.93
2019-05-30T16:08:50.823Z,21.97
2019-05-30T16:11:19.713Z,17.80
2019-05-30T16:13:48.426Z,11.53
2019-05-30T16:16:18.897Z,17.67
2019-05-30T16:18:47.889Z,9.50
2019-05-30T16:21:17.558Z,12.40
2019-05-30T16:23:48.128Z,14.90
2019-05-30T16:26:17.621Z,14.47
2019-05-30T16:28:46.233Z,13.77
2019-05-30T16:31:15.690Z,16.00
2019-05-30T16:33:44.632Z,14.40
2019-05-30T16:36:14.108Z,15.97
2019-05-30T16:38:42.607Z,19.33
2019-05-30T16:41:11.865Z,16.37
2019-05-30T16:43:40.789Z,17.37
2019-05-30T16:46:09.711Z,18.60
2019-05-30T16:48:41.942Z,20.60
2019-05-30T16:51:10.143Z,27.30
2019-05-30T16:53:38.707Z,21.00
2019-05-30T16:56:08.094Z,18.00
2019-05-30T16:58:37.032Z,21.30
2019-05-30T17:01:09.337Z,21.03
2019-05-30T17:03:46.064Z,15.40
2019-05-30T17:06:10.649Z,21.27
2019-05-30T17:08:44.182Z,16.73
2019-05-30T17:11:09.830Z,13.93
2019-05-30T17:13:39.142Z,14.40
2019-05-30T17:16:10.725Z,13.00
2019-05-30T17:18:39.262Z,14.90
2019-05-30T17:21:08.502Z,14.97
2019-05-30T17:23:41.420Z,14.07
2019-05-30T17:26:17.037Z,19.67
2019-05-30T17:28:45.139Z,23.43
2019-05-30T17:31:15.179Z,18.27
2019-05-30T17:33:43.716Z,17.20
2019-05-30T17:36:19.991Z,17.87
2019-05-30T17:38:48.731Z,18.83
2019-05-30T17:41:28.984Z,33.73
2019-05-30T17:43:56.255Z,29.10
2019-05-30T17:46:25.742Z,36.20
2019-05-30T17:51:45.438Z,29.17
2019-05-30T17:54:19.662Z,23.10
2019-05-30T17:56:49.852Z,16.30
2019-05-30T17:59:20.061Z,18.17
2019-05-30T18:01:50.937Z,20.40
2019-05-30T18:04:20.385Z,15.33
2019-05-30T18:06:52.237Z,15.40
2019-05-30T18:09:29.168Z,21.37
2019-05-30T18:11:55.523Z,14.00
2019-05-30T18:14:25.069Z,14.43
2019-05-30T18:17:21.208Z,16.70
2019-05-30T18:19:25.445Z,16.33
2019-05-30T18:22:28.037Z,14.60
2019-05-30T18:24:47.287Z,13.47
2019-05-30T18:30:15.090Z,19.90
2019-05-30T18:35:30.481Z,15.50
2019-05-30T18:38:01.860Z,14.13
2019-05-30T18:40:31.219Z,19.27
2019-05-30T18:43:05.434Z,19.83
2019-05-30T18:45:46.237Z,17.77
2019-05-30T18:48:10.918Z,17.27
2019-05-30T18:50:44.820Z,17.40
2019-05-30T18:53:16.891Z,17.23
2019-05-30T18:55:51.910Z,16.13
2019-05-30T18:58:21.403Z,15.50
2019-05-30T19:00:54.219Z,16.40
2019-05-30T19:03:22.659Z,54.83
2019-05-30T19:05:53.153Z,34.60
2019-05-30T19:08:25.724Z,20.23
2019-05-30T19:10:56.699Z,13.20
2019-05-30T19:13:25.346Z,9.50
2019-05-30T19:15:53.915Z,8.90
2019-05-30T19:18:22.501Z,9.27
2019-05-30T19:20:51.700Z,12.67
2019-05-30T19:23:21.625Z,8.60
2019-05-30T19:25:50.097Z,9.43
2019-05-30T19:28:20.311Z,10.83
2019-05-30T19:30:50.673Z,14.43
2019-05-30T19:33:22.022Z,14.93
2019-05-30T19:35:50.954Z,11.03
2019-05-30T19:38:19.597Z,11.70
2019-05-30T19:40:49.067Z,13.70
2019-05-30T19:43:17.785Z,12.60
2019-05-30T19:45:47.494Z,14.43
2019-05-30T19:48:16.136Z,14.30
2019-05-30T19:50:45.477Z,13.50
2019-05-30T19:53:22.966Z,14.87
2019-05-30T19:55:55.208Z,25.33
2019-05-30T19:58:22.798Z,18.33
2019-05-30T20:00:58.606Z,24.87
2019-05-30T20:03:36.436Z,41.90
2019-05-30T20:05:54.403Z,36.47
2019-05-30T20:08:22.679Z,52.87
2019-05-30T20:10:52.675Z,56.77
2019-05-30T20:13:21.338Z,32.67
2019-05-30T20:15:51.618Z,20.63
2019-05-30T20:18:20.392Z,21.87
2019-05-30T20:20:57.162Z,18.57
2019-05-30T20:23:19.539Z,21.27
2019-05-30T20:25:48.564Z,24.67
2019-05-30T20:28:20.980Z,21.97
2019-05-30T20:30:48.268Z,24.37
2019-05-30T20:33:16.574Z,36.63
2019-05-30T20:35:45.139Z,50.40
2019-05-30T20:38:13.507Z,62.90
2019-05-30T20:40:43.028Z,43.97
2019-05-30T20:43:11.626Z,42.17
2019-05-30T20:45:46.905Z,40.73
2019-05-30T20:48:12.873Z,36.40
2019-05-30T20:50:43.185Z,33.93
2019-05-30T20:53:12.194Z,35.97
2019-05-30T20:55:46.911Z,38.93
2019-05-30T20:58:16.004Z,42.40
2019-05-30T21:00:47.348Z,42.57
2019-05-30T21:03:15.921Z,38.93
2019-05-30T21:05:46.036Z,38.90
2019-05-30T21:08:14.448Z,39.07
2019-05-30T21:10:54.394Z,36.70
2019-05-30T21:13:26.962Z,35.00
2019-05-30T21:15:57.436Z,36.33
2019-05-30T21:18:27.397Z,35.73
2019-05-30T21:20:56.779Z,38.60
2019-05-30T21:23:26.811Z,36.07
2019-05-30T21:25:57.266Z,11.47
2019-05-30T21:28:31.145Z,8.27
2019-05-30T21:31:00.720Z,11.23
2019-05-30T21:33:29.143Z,10.70
2019-05-30T21:35:57.747Z,10.00
2019-05-30T21:38:28.613Z,8.50
2019-05-30T21:40:58.305Z,10.83
2019-05-30T21:43:26.663Z,11.23
2019-05-30T21:45:55.426Z,14.30
2019-05-30T21:48:23.782Z,17.97
2019-05-30T21:50:52.381Z,16.03
2019-05-30T21:53:20.863Z,16.60
2019-05-30T21:55:50.150Z,18.00
2019-05-30T21:58:18.925Z,19.60
2019-05-30T22:00:50.750Z,17.17
2019-05-30T22:03:19.965Z,16.60
2019-05-30T22:05:49.739Z,10.37
2019-05-30T22:08:19.009Z,7.83
2019-05-30T22:10:47.796Z,8.23
2019-05-30T22:13:16.560Z,9.90
2019-05-30T22:15:45.957Z,9.60
2019-05-30T22:18:14.610Z,8.20
2019-05-30T22:20:43.791Z,7.10
2019-05-30T22:23:12.732Z,5.77
2019-05-30T22:25:42.154Z,7.27
2019-05-30T22:28:10.620Z,8.73
2019-05-30T22:30:39.023Z,6.10
2019-05-30T22:33:08.092Z,6.90
2019-05-30T22:35:37.032Z,5.97
2019-05-30T22:38:05.464Z,5.23
2019-05-30T22:40:33.734Z,6.13
2019-05-30T22:43:02.481Z,7.37
2019-05-30T22:45:31.026Z,8.33
2019-05-30T22:47:59.195Z,10.07
2019-05-30T22:50:27.756Z,10.83
2019-05-30T22:52:57.112Z,10.07
2019-05-30T22:55:25.539Z,6.83
2019-05-30T22:57:53.774Z,4.33
2019-05-30T23:00:22.760Z,5.77
2019-05-30T23:02:51.933Z,5.70
2019-05-30T23:05:21.408Z,4.10
2019-05-30T23:07:49.946Z,4.00
2019-05-30T23:10:18.244Z,4.33
2019-05-30T23:12:47.717Z,4.80
2019-05-30T23:15:16.533Z,5.50
2019-05-30T23:17:46.049Z,8.50
2019-05-30T23:20:14.809Z,4.77
2019-05-30T23:22:43.541Z,3.90
2019-05-30T23:25:11.797Z,4.17
2019-05-30T23:27:40.573Z,5.60
2019-05-30T23:30:09.367Z,6.60
2019-05-30T23:32:37.606Z,4.27
2019-05-30T23:35:06.896Z,22.23
2019-05-30T23:37:35.936Z,5.67
2019-05-30T23:40:06.670Z,3.70
2019-05-30T23:42:34.946Z,2.97
2019-05-30T23:45:05.026Z,5.73
2019-05-30T23:47:33.806Z,3.77
2019-05-30T23:50:02.776Z,3.70
2019-05-30T23:52:31.719Z,5.00
2019-05-30T23:55:02.289Z,8.50
2019-05-30T23:57:30.455Z,8.03
2019-05-30T23:59:59.247Z,9.20
